createdAt,value
2022-12-20T00:01:08.537Z,15.57
2022-12-20T00:06:13.596Z,14.33
2022-12-20T00:11:15.787Z,16.70
2022-12-20T00:16:19.675Z,16.03
2022-12-20T00:21:23.748Z,14.93
2022-12-20T00:26:30.385Z,14.47
2022-12-20T00:31:33.155Z,17.73
2022-12-20T00:36:36.799Z,15.13
2022-12-20T00:41:38.614Z,12.87
2022-12-20T00:46:40.784Z,17.57
2022-12-20T00:51:44.158Z,17.27
2022-12-20T00:56:46.317Z,14.87
2022-12-20T01:01:48.646Z,15.20
2022-12-20T01:06:52.244Z,15.07
2022-12-20T01:11:54.444Z,15.67
2022-12-20T01:16:56.668Z,16.53
2022-12-20T01:22:00.194Z,11.10
2022-12-20T01:27:02.318Z,15.87
2022-12-20T01:32:04.436Z,15.53
2022-12-20T01:37:07.982Z,15.37
2022-12-20T01:42:13.753Z,14.90
2022-12-20T01:47:15.968Z,16.03
2022-12-20T01:52:25.940Z,13.10
2022-12-20T01:57:32.994Z,13.20
2022-12-20T02:02:35.942Z,14.47
2022-12-20T02:07:39.869Z,12.77
2022-12-20T02:12:43.684Z,17.27
2022-12-20T02:17:52.965Z,13.70
2022-12-20T02:23:17.196Z,13.90
2022-12-20T02:28:48.255Z,15.07
2022-12-20T02:33:55.986Z,15.07
2022-12-20T02:38:58.380Z,15.33
2022-12-20T02:44:05.196Z,16.93
2022-12-20T02:49:14.320Z,12.60
2022-12-20T02:54:17.638Z,13.33
2022-12-20T02:59:24.531Z,15.23
2022-12-20T03:04:31.393Z,15.67
2022-12-20T03:09:36.016Z,13.87
2022-12-20T03:14:38.220Z,12.87
2022-12-20T03:19:41.550Z,15.47
2022-12-20T03:24:43.683Z,13.77
2022-12-20T03:29:46.132Z,13.57
2022-12-20T03:34:49.639Z,13.33
2022-12-20T03:39:51.735Z,12.70
2022-12-20T03:44:54.213Z,14.57
2022-12-20T03:49:57.880Z,13.17
2022-12-20T03:54:59.658Z,11.93
2022-12-20T04:00:01.828Z,11.30
2022-12-20T04:05:06.422Z,10.93
2022-12-20T04:10:09.655Z,10.73
2022-12-20T04:15:11.867Z,10.93
2022-12-20T04:20:16.704Z,12.23
2022-12-20T04:25:21.285Z,14.17
2022-12-20T04:30:23.343Z,9.47
2022-12-20T04:35:26.783Z,12.87
2022-12-20T04:40:28.458Z,11.93
2022-12-20T04:45:30.563Z,13.87
2022-12-20T04:50:34.188Z,10.80
2022-12-20T04:55:37.576Z,11.37
2022-12-20T05:00:39.947Z,13.53
2022-12-20T05:05:43.523Z,13.07
2022-12-20T05:10:46.277Z,12.67
2022-12-20T05:15:51.549Z,11.07
2022-12-20T05:20:57.153Z,12.23
2022-12-20T05:25:59.383Z,13.07
2022-12-20T05:31:01.863Z,12.80
2022-12-20T05:36:05.742Z,14.00
2022-12-20T05:41:07.980Z,12.67
2022-12-20T05:46:10.516Z,14.90
2022-12-20T05:51:14.023Z,14.60
2022-12-20T05:56:16.226Z,13.40
2022-12-20T06:01:18.317Z,13.40
2022-12-20T06:06:21.941Z,10.27
2022-12-20T06:11:29.639Z,10.57
2022-12-20T06:16:32.514Z,11.10
2022-12-20T06:21:36.260Z,10.73
2022-12-20T06:26:38.360Z,10.03
2022-12-20T06:31:40.937Z,18.67
2022-12-20T06:36:44.615Z,10.90
2022-12-20T06:41:46.791Z,12.47
2022-12-20T06:46:49.404Z,11.93
2022-12-20T06:51:52.485Z,11.50
2022-12-20T06:56:54.571Z,10.70
2022-12-20T07:01:56.838Z,11.17
2022-12-20T07:07:00.375Z,13.83
2022-12-20T07:12:02.361Z,10.03
2022-12-20T07:17:05.466Z,10.27
2022-12-20T07:22:11.941Z,17.10
2022-12-20T07:27:13.645Z,13.03
2022-12-20T07:32:15.659Z,11.37
2022-12-20T07:37:19.091Z,14.93
2022-12-20T07:42:20.837Z,12.60
2022-12-20T07:47:22.838Z,15.30
2022-12-20T07:52:29.247Z,13.47
2022-12-20T07:57:36.093Z,22.07
2022-12-20T08:02:42.889Z,13.63
2022-12-20T08:07:47.037Z,14.97
2022-12-20T08:12:50.680Z,15.00
2022-12-20T08:17:52.921Z,17.03
2022-12-20T08:22:56.057Z,13.10
2022-12-20T08:27:58.365Z,15.60
2022-12-20T08:33:00.378Z,18.83
2022-12-20T08:38:03.571Z,18.37
2022-12-20T08:43:10.133Z,15.60
2022-12-20T08:48:12.259Z,18.63
2022-12-20T08:53:15.532Z,17.03
2022-12-20T08:58:17.535Z,17.57
2022-12-20T09:03:19.445Z,19.07
2022-12-20T09:08:22.673Z,16.73
2022-12-20T09:13:24.764Z,17.00
2022-12-20T09:18:26.442Z,20.90
2022-12-20T09:23:29.978Z,19.77
2022-12-20T09:28:32.804Z,16.57
2022-12-20T09:33:35.280Z,19.57
2022-12-20T09:38:38.771Z,15.87
2022-12-20T09:43:41.119Z,19.67
2022-12-20T09:48:43.964Z,16.47
2022-12-20T09:54:01.059Z,16.13
2022-12-20T09:59:05.846Z,14.20
2022-12-20T10:04:19.485Z,13.17
2022-12-20T10:09:40.713Z,14.07
2022-12-20T10:15:03.181Z,15.00
2022-12-20T10:20:18.759Z,15.77
2022-12-20T10:25:23.594Z,18.63
2022-12-20T10:30:27.780Z,14.17
2022-12-20T10:35:34.006Z,14.20
2022-12-20T10:41:19.414Z,12.40
2022-12-20T10:46:04.326Z,12.37
2022-12-20T10:51:16.584Z,12.07
2022-12-20T10:56:22.629Z,13.50
2022-12-20T11:01:28.873Z,11.87
2022-12-20T11:06:42.026Z,15.60
2022-12-20T11:11:58.014Z,12.73
2022-12-20T11:17:05.104Z,12.97
2022-12-20T11:22:17.877Z,12.90
2022-12-20T11:27:35.830Z,11.40
2022-12-20T11:32:55.266Z,9.53
2022-12-20T11:38:09.673Z,10.57
2022-12-20T11:43:43.418Z,10.50
2022-12-20T11:49:14.780Z,9.37
2022-12-20T11:54:23.332Z,10.67
2022-12-20T11:59:33.735Z,9.80
2022-12-20T12:04:40.003Z,9.67
2022-12-20T12:09:51.243Z,10.87
2022-12-20T12:15:01.640Z,8.13
2022-12-20T12:20:22.429Z,13.03
2022-12-20T12:25:24.568Z,10.77
2022-12-20T12:30:36.405Z,9.87
2022-12-20T12:36:04.316Z,9.90
2022-12-20T12:41:37.857Z,10.20
2022-12-20T12:46:41.318Z,11.20
2022-12-20T12:51:50.429Z,14.03
2022-12-20T12:56:52.983Z,11.33
2022-12-20T13:02:24.965Z,11.40
2022-12-20T13:07:40.230Z,10.73
2022-12-20T13:12:58.292Z,10.27
2022-12-20T13:18:17.198Z,11.53
2022-12-20T13:23:20.417Z,9.63
2022-12-20T13:28:44.319Z,9.77
2022-12-20T13:33:49.019Z,12.63
2022-12-20T13:38:59.366Z,10.67
2022-12-20T13:44:09.757Z,14.17
2022-12-20T13:49:21.671Z,10.50
2022-12-20T13:54:27.326Z,12.03
2022-12-20T13:59:32.238Z,10.37
2022-12-20T14:04:43.486Z,12.23
2022-12-20T14:09:46.920Z,11.63
2022-12-20T14:14:50.462Z,13.20
2022-12-20T14:20:15.159Z,11.03
2022-12-20T14:25:23.215Z,14.13
2022-12-20T14:30:31.455Z,12.43
2022-12-20T14:35:34.818Z,15.10
2022-12-20T14:40:41.857Z,12.07
2022-12-20T14:45:43.762Z,14.00
2022-12-20T14:50:53.628Z,15.43
2022-12-20T14:55:56.085Z,11.93
2022-12-20T15:01:00.434Z,14.13
2022-12-20T15:06:04.036Z,17.10
2022-12-20T15:11:15.521Z,13.90
2022-12-20T15:16:20.451Z,14.47
2022-12-20T15:21:29.588Z,15.83
2022-12-20T15:26:31.673Z,16.43
2022-12-20T15:31:36.074Z,15.63
2022-12-20T15:36:39.752Z,21.97
2022-12-20T15:41:44.690Z,17.33
2022-12-20T15:46:46.641Z,18.53
2022-12-20T15:51:51.729Z,17.80
2022-12-20T15:56:54.376Z,17.07
2022-12-20T16:01:56.378Z,18.67
2022-12-20T16:06:59.660Z,18.17
2022-12-20T16:12:01.803Z,19.03
2022-12-20T16:17:03.838Z,19.10
2022-12-20T16:22:15.100Z,16.53
2022-12-20T16:27:17.164Z,18.03
2022-12-20T16:32:21.099Z,23.40
2022-12-20T16:37:24.182Z,18.70
2022-12-20T16:42:25.961Z,20.27
2022-12-20T16:47:27.667Z,19.30
2022-12-20T16:52:31.224Z,18.30
2022-12-20T16:57:33.524Z,18.60
2022-12-20T17:02:35.591Z,19.47
2022-12-20T17:07:41.569Z,17.50
2022-12-20T17:12:44.585Z,15.67
2022-12-20T17:17:48.460Z,17.13
2022-12-20T17:28:15.092Z,15.67
2022-12-20T17:33:17.212Z,20.90
2022-12-20T17:38:20.262Z,20.27
2022-12-20T17:43:22.339Z,16.97
2022-12-20T17:48:30.407Z,17.97
2022-12-20T17:53:35.974Z,20.37
2022-12-20T17:58:37.931Z,17.23
2022-12-20T18:04:02.991Z,21.43
2022-12-20T18:09:04.785Z,17.63
2022-12-20T18:14:07.081Z,18.10
2022-12-20T18:19:15.792Z,15.13
2022-12-20T18:24:19.085Z,17.63
2022-12-20T18:29:21.035Z,21.03
2022-12-20T18:34:22.916Z,19.47
2022-12-20T18:39:26.365Z,19.07
2022-12-20T18:44:28.319Z,19.13
2022-12-20T18:49:30.963Z,18.97
2022-12-20T18:54:34.150Z,17.73
2022-12-20T18:59:37.812Z,19.43
2022-12-20T19:04:40.351Z,18.63
2022-12-20T19:09:43.871Z,18.57
2022-12-20T19:14:46.617Z,18.37
2022-12-20T19:19:48.797Z,16.90
2022-12-20T19:24:52.708Z,18.50
2022-12-20T19:29:54.712Z,21.07
2022-12-20T19:34:56.483Z,19.50
2022-12-20T19:39:59.975Z,21.13
2022-12-20T19:45:02.101Z,18.17
2022-12-20T19:50:05.481Z,18.03
2022-12-20T19:55:09.263Z,22.07
2022-12-20T20:00:12.438Z,22.57
2022-12-20T20:05:15.543Z,25.67
2022-12-20T20:10:19.475Z,24.90
2022-12-20T20:15:21.683Z,20.90
2022-12-20T20:20:23.915Z,21.47
2022-12-20T20:25:27.387Z,19.90
2022-12-20T20:30:29.442Z,18.50
2022-12-20T20:35:31.541Z,18.47
2022-12-20T20:40:34.853Z,19.80
2022-12-20T20:45:36.704Z,25.60
2022-12-20T20:50:38.843Z,23.33
2022-12-20T20:55:41.916Z,18.67
2022-12-20T21:00:44.099Z,23.57
2022-12-20T21:06:34.556Z,23.00
2022-12-20T21:11:09.816Z,24.10
2022-12-20T21:16:13.763Z,26.87
2022-12-20T21:21:16.039Z,21.60
2022-12-20T21:26:20.707Z,21.40
2022-12-20T21:31:23.045Z,24.07
2022-12-20T21:36:25.925Z,23.17
2022-12-20T21:41:29.501Z,26.17
2022-12-20T21:46:31.689Z,22.60
2022-12-20T21:51:33.999Z,21.07
2022-12-20T21:56:37.574Z,26.60
2022-12-20T22:01:39.506Z,25.83
2022-12-20T22:06:42.117Z,22.90
2022-12-20T22:11:46.928Z,19.40
2022-12-20T22:16:49.107Z,20.20
2022-12-20T22:21:57.639Z,22.87
2022-12-20T22:27:06.298Z,23.30
2022-12-20T22:32:13.890Z,19.97
2022-12-20T22:37:15.676Z,26.23
2022-12-20T22:42:19.084Z,26.07
2022-12-20T22:47:21.180Z,20.50
2022-12-20T22:52:23.037Z,23.53
2022-12-20T22:57:27.080Z,23.43
2022-12-20T23:02:29.337Z,22.20
2022-12-20T23:07:31.535Z,23.67
2022-12-20T23:12:35.917Z,21.10
2022-12-20T23:17:37.976Z,23.80
2022-12-20T23:22:40.115Z,21.30
2022-12-20T23:27:45.935Z,20.63
2022-12-20T23:32:48.486Z,22.23
2022-12-20T23:37:50.634Z,22.03
2022-12-20T23:42:54.240Z,24.97
2022-12-20T23:47:56.213Z,27.03
2022-12-20T23:52:58.571Z,23.00
2022-12-20T23:58:02.297Z,18.53
